CheckWX is a tool to help pilots better visualize weather data.  It is not intended as a substitute for an official pre-flight weather briefing.

14:50:15 UTC

CYPX TAF
Puvirnituq Airport
Puvirnituq, Canada
TAF CYPX 231138Z 2312/2324 18040G50KT 0SM SN +BLSN VV003 TEMPO 2312/2316 1SM -SN SCT003 OVC012 BECMG 2314/2316 26028G38KT FM231600 26028G38KT 3/4SM -SN BLSN OVC008 TEMPO 2316/2322 5SM -SN OVC015 FM232200 29025G35KT 21/2SM -SN BLSN OVC020 TEMPO 2322/2324 6SM -SN BKN030 RMK FCST BASED ON AUTO OBS. NXT FCST BY 231800Z

Mar-23@
12:00 UTC

Mar-23 @ 12:00 UTC

Mar-23@
14:00 UTC

Mar-23 @ 14:00 UTC

TAF CYPX 231138Z 2312/2324 18040G50KT 0SM SN +BLSN VV003

Expired

Wind
  • 180° at 40 KTS
  • {Gusting to 50 KTS
Conditions
Snow, Heavy Blowing Heavy Snow
Cloud Levels
  • Vertical visibility at 300' AGL

Mar-23@
12:00 UTC

Mar-23 @ 12:00 UTC

Mar-23@
16:00 UTC

Mar-23 @ 16:00 UTC

TEMPO 2312/2316 1SM -SN SCT003 OVC012

Temporary

Temporary Changes expected for less than half the time period

Conditions
Light Snow
Cloud Levels
  • Scattered at 300' AGL
  • Overcast at 1,200' AGL

Mar-23@
14:00 UTC

Mar-23 @ 14:00 UTC

Mar-23@
16:00 UTC

Mar-23 @ 16:00 UTC

BECMG 2314/2316 26028G38KT

Becoming

Becoming Conditions expected by Sat, Mar 23, 2019 @ 16:00 UTC

Wind
  • 260° at 28 KTS
  • {Gusting to 38 KTS
Conditions
Snow, Heavy Blowing Heavy Snow
Cloud Levels
  • Vertical visibility at 300' AGL

Mar-23@
16:00 UTC

Mar-23 @ 16:00 UTC

Mar-23@
22:00 UTC

Mar-23 @ 22:00 UTC

TEMPO 2316/2322 5SM -SN OVC015

Temporary

Temporary Changes expected for less than half the time period

Conditions
Light Snow
Cloud Levels
  • Overcast at 1,500' AGL

Mar-23@
16:00 UTC

Mar-23 @ 16:00 UTC

Mar-23@
22:00 UTC

Mar-23 @ 22:00 UTC

FM231600 26028G38KT 3/4SM -SN BLSN OVC008

From

From Standard forecast or significant change

Wind
  • 260° at 28 KTS
  • {Gusting to 38 KTS
Conditions
Light Snow, Blowing Snow
Cloud Levels
  • Overcast at 800' AGL

Mar-23@
22:00 UTC

Mar-23 @ 22:00 UTC

Mar-24@
00:00 UTC

Mar-24 @ 00:00 UTC

TEMPO 2322/2324 6SM -SN BKN030 RMK FCST BASED ON AUTO OBS. NXT FCST BY 231800Z

Temporary

Temporary Changes expected for less than half the time period

Conditions
Light Snow
Cloud Levels
  • Broken at 3,000' AGL

Mar-23@
22:00 UTC

Mar-23 @ 22:00 UTC

Mar-24@
00:00 UTC

Mar-24 @ 00:00 UTC

FM232200 29025G35KT 21/2SM -SN BLSN OVC020

From

From Standard forecast or significant change

Wind
  • 290° at 25 KTS
  • {Gusting to 35 KTS
Conditions
Light Snow, Blowing Snow
Cloud Levels
  • Overcast at 2,000' AGL